sensor_id;sensor_type;location;lat;lon;timestamp;pressure;altitude;pressure_sealevel;temperature;humidity
9415;BME280;4746;35.664;139.738;2023-03-25T00:01:45;100573.69;;;15.98;63.21
9415;BME280;4746;35.664;139.738;2023-03-25T00:04:13;100571.09;;;15.96;63.44
9415;BME280;4746;35.664;139.738;2023-03-25T00:06:43;100564.25;;;15.92;63.40
9415;BME280;4746;35.664;139.738;2023-03-25T00:09:11;100570.28;;;15.91;63.11
9415;BME280;4746;35.664;139.738;2023-03-25T00:11:39;100583.25;;;15.88;63.24
9415;BME280;4746;35.664;139.738;2023-03-25T00:14:10;100577.22;;;15.86;63.36
9415;BME280;4746;35.664;139.738;2023-03-25T00:16:43;100585.00;;;15.84;63.20
9415;BME280;4746;35.664;139.738;2023-03-25T00:19:14;100589.28;;;15.87;63.22
9415;BME280;4746;35.664;139.738;2023-03-25T00:21:42;100577.19;;;15.92;63.15
9415;BME280;4746;35.664;139.738;2023-03-25T00:24:15;100573.69;;;15.96;63.13
9415;BME280;4746;35.664;139.738;2023-03-25T00:26:47;100589.19;;;15.96;62.75
9415;BME280;4746;35.664;139.738;2023-03-25T00:29:16;100581.47;;;15.94;62.86
9415;BME280;4746;35.664;139.738;2023-03-25T00:31:43;100591.00;;;15.88;62.97
9415;BME280;4746;35.664;139.738;2023-03-25T00:34:11;100591.03;;;15.85;62.94
9415;BME280;4746;35.664;139.738;2023-03-25T00:36:41;100594.47;;;15.84;62.87
9415;BME280;4746;35.664;139.738;2023-03-25T00:39:10;100597.97;;;15.80;62.92
9415;BME280;4746;35.664;139.738;2023-03-25T00:41:37;100601.44;;;15.73;62.52
9415;BME280;4746;35.664;139.738;2023-03-25T00:44:10;100591.13;;;15.73;62.80
9415;BME280;4746;35.664;139.738;2023-03-25T00:46:42;100609.25;;;15.70;62.58
9415;BME280;4746;35.664;139.738;2023-03-25T00:49:10;100603.25;;;15.65;62.89
9415;BME280;4746;35.664;139.738;2023-03-25T00:51:38;100598.09;;;15.65;62.88
9415;BME280;4746;35.664;139.738;2023-03-25T00:54:13;100601.50;;;15.67;63.12
9415;BME280;4746;35.664;139.738;2023-03-25T00:56:43;100612.72;;;15.66;63.04
9415;BME280;4746;35.664;139.738;2023-03-25T00:59:10;100615.31;;;15.63;62.93
9415;BME280;4746;35.664;139.738;2023-03-25T01:01:38;100617.03;;;15.61;63.13
9415;BME280;4746;35.664;139.738;2023-03-25T01:04:06;100622.19;;;15.61;63.08
9415;BME280;4746;35.664;139.738;2023-03-25T01:06:40;100621.34;;;15.62;62.82
9415;BME280;4746;35.664;139.738;2023-03-25T01:09:13;100627.38;;;15.64;62.73
9415;BME280;4746;35.664;139.738;2023-03-25T01:11:44;100594.63;;;15.66;63.05
9415;BME280;4746;35.664;139.738;2023-03-25T01:14:19;100603.22;;;15.68;63.13
9415;BME280;4746;35.664;139.738;2023-03-25T01:16:50;100615.31;;;15.63;62.98
9415;BME280;4746;35.664;139.738;2023-03-25T01:19:17;100621.34;;;15.60;62.82
9415;BME280;4746;35.664;139.738;2023-03-25T01:21:45;100618.78;;;15.59;62.70
9415;BME280;4746;35.664;139.738;2023-03-25T01:24:14;100613.59;;;15.60;62.59
9415;BME280;4746;35.664;139.738;2023-03-25T01:26:43;100617.94;;;15.60;63.34
9415;BME280;4746;35.664;139.738;2023-03-25T01:29:17;100604.97;;;15.63;63.07
9415;BME280;4746;35.664;139.738;2023-03-25T01:31:46;100603.25;;;15.65;62.75
9415;BME280;4746;35.664;139.738;2023-03-25T01:34:14;100606.66;;;15.67;63.04
9415;BME280;4746;35.664;139.738;2023-03-25T01:36:42;100599.81;;;15.66;63.09
9415;BME280;4746;35.664;139.738;2023-03-25T01:39:15;100617.00;;;15.67;63.16
9415;BME280;4746;35.664;139.738;2023-03-25T01:41:47;100615.25;;;15.72;63.07
9415;BME280;4746;35.664;139.738;2023-03-25T01:46:48;100617.78;;;15.79;63.04
9415;BME280;4746;35.664;139.738;2023-03-25T01:49:35;100612.53;;;15.87;62.75
9415;BME280;4746;35.664;139.738;2023-03-25T01:52:26;100614.28;;;15.88;62.42
9415;BME280;4746;35.664;139.738;2023-03-25T01:54:57;100595.31;;;15.86;63.22
9415;BME280;4746;35.664;139.738;2023-03-25T01:57:26;100593.56;;;15.92;63.16
9415;BME280;4746;35.664;139.738;2023-03-25T01:59:54;100607.28;;;15.98;63.11
9415;BME280;4746;35.664;139.738;2023-03-25T02:02:23;100590.88;;;16.02;62.90
9415;BME280;4746;35.664;139.738;2023-03-25T02:05:15;100608.09;;;16.03;62.80
9415;BME280;4746;35.664;139.738;2023-03-25T02:07:48;100597.75;;;16.03;62.77
9415;BME280;4746;35.664;139.738;2023-03-25T02:10:17;100590.88;;;16.02;62.74
9415;BME280;4746;35.664;139.738;2023-03-25T02:12:45;100601.25;;;15.99;62.78
9415;BME280;4746;35.664;139.738;2023-03-25T02:15:16;100601.25;;;15.99;62.75
9415;BME280;4746;35.664;139.738;2023-03-25T02:18:28;100608.13;;;15.99;62.87
9415;BME280;4746;35.664;139.738;2023-03-25T02:39:24;100583.91;;;16.10;62.59
9415;BME280;4746;35.664;139.738;2023-03-25T02:42:43;100580.41;;;16.14;62.51
9415;BME280;4746;35.664;139.738;2023-03-25T02:45:34;100563.25;;;16.07;62.07
9415;BME280;4746;35.664;139.738;2023-03-25T02:48:15;100558.13;;;16.01;62.22
9415;BME280;4746;35.664;139.738;2023-03-25T02:50:57;100566.78;;;15.98;62.43
9415;BME280;4746;35.664;139.738;2023-03-25T02:53:32;100572.84;;;15.95;62.42
9415;BME280;4746;35.664;139.738;2023-03-25T02:56:09;100557.38;;;15.92;62.75
9415;BME280;4746;35.664;139.738;2023-03-25T02:58:40;100555.66;;;15.90;62.64
9415;BME280;4746;35.664;139.738;2023-03-25T03:01:08;100553.97;;;15.87;62.65
9415;BME280;4746;35.664;139.738;2023-03-25T03:03:36;100542.81;;;15.85;62.44
9415;BME280;4746;35.664;139.738;2023-03-25T03:06:06;100553.13;;;15.84;62.82
9415;BME280;4746;35.664;139.738;2023-03-25T03:11:55;100547.94;;;15.87;62.73
9415;BME280;4746;35.664;139.738;2023-03-25T03:17:57;100534.06;;;15.97;62.53
9415;BME280;4746;35.664;139.738;2023-03-25T03:29:47;100529.59;;;16.15;62.19
9415;BME280;4746;35.664;139.738;2023-03-25T03:32:31;100531.28;;;16.16;62.69
9415;BME280;4746;35.664;139.738;2023-03-25T03:35:10;100525.22;;;16.20;62.68
9415;BME280;4746;35.664;139.738;2023-03-25T03:37:46;100529.47;;;16.27;62.46
9415;BME280;4746;35.664;139.738;2023-03-25T03:40:22;100530.16;;;16.42;62.19
9415;BME280;4746;35.664;139.738;2023-03-25T03:43:05;100523.88;;;16.61;62.17
9415;BME280;4746;35.664;139.738;2023-03-25T03:45:46;100528.97;;;16.70;61.95
9415;BME280;4746;35.664;139.738;2023-03-25T03:48:28;100516.84;;;16.73;61.67
9415;BME280;4746;35.664;139.738;2023-03-25T03:51:05;100527.09;;;16.81;61.37
9415;BME280;4746;35.664;139.738;2023-03-25T03:53:41;100526.22;;;16.82;61.19
9415;BME280;4746;35.664;139.738;2023-03-25T03:56:25;100526.16;;;16.85;61.12
9415;BME280;4746;35.664;139.738;2023-03-25T03:58:57;100508.06;;;16.83;61.32
9415;BME280;4746;35.664;139.738;2023-03-25T04:01:39;100508.91;;;16.87;61.07
9415;BME280;4746;35.664;139.738;2023-03-25T04:04:24;100505.25;;;17.00;61.06
9415;BME280;4746;35.664;139.738;2023-03-25T04:07:18;100496.31;;;17.19;61.10
9415;BME280;4746;35.664;139.738;2023-03-25T04:09:53;100496.38;;;17.16;60.92
9415;BME280;4746;35.664;139.738;2023-03-25T04:12:38;100503.19;;;17.23;60.97
9415;BME280;4746;35.664;139.738;2023-03-25T04:15:08;100501.44;;;17.23;60.79
9415;BME280;4746;35.664;139.738;2023-03-25T04:17:37;100489.47;;;17.16;60.47
9415;BME280;4746;35.664;139.738;2023-03-25T04:20:05;100491.16;;;17.19;60.46
9415;BME280;4746;35.664;139.738;2023-03-25T04:22:37;100479.97;;;17.15;60.61
9415;BME280;4746;35.664;139.738;2023-03-25T04:25:06;100485.28;;;17.08;60.41
9415;BME280;4746;35.664;139.738;2023-03-25T04:27:34;100478.50;;;16.99;60.12
9415;BME280;4746;35.664;139.738;2023-03-25T04:30:06;100476.75;;;17.01;60.41
9415;BME280;4746;35.664;139.738;2023-03-25T04:32:34;100474.22;;;16.97;60.57
9415;BME280;4746;35.664;139.738;2023-03-25T04:35:02;100485.47;;;16.97;60.56
9415;BME280;4746;35.664;139.738;2023-03-25T04:37:29;100482.84;;;16.99;60.63
9415;BME280;4746;35.664;139.738;2023-03-25T04:39:59;100484.56;;;17.00;60.59
9415;BME280;4746;35.664;139.738;2023-03-25T04:42:27;100485.41;;;17.00;61.05
9415;BME280;4746;35.664;139.738;2023-03-25T04:45:04;100485.44;;;16.99;60.63
9415;BME280;4746;35.664;139.738;2023-03-25T04:47:33;100488.00;;;16.99;60.53
9415;BME280;4746;35.664;139.738;2023-03-25T04:50:02;100482.88;;;16.97;60.67
9415;BME280;4746;35.664;139.738;2023-03-25T04:52:30;100486.31;;;16.96;60.47
9415;BME280;4746;35.664;139.738;2023-03-25T04:54:58;100480.19;;;17.02;60.38
9415;BME280;4746;35.664;139.738;2023-03-25T04:57:27;100474.09;;;17.06;60.25
9415;BME280;4746;35.664;139.738;2023-03-25T04:59:54;100482.66;;;17.09;60.28
9415;BME280;4746;35.664;139.738;2023-03-25T05:02:22;100481.72;;;17.15;60.41
9415;BME280;4746;35.664;139.738;2023-03-25T05:04:49;100481.53;;;17.28;60.29
9415;BME280;4746;35.664;139.738;2023-03-25T05:07:19;100488.25;;;17.41;59.63
9415;BME280;4746;35.664;139.738;2023-03-25T05:09:47;100487.31;;;17.46;59.62
9415;BME280;4746;35.664;139.738;2023-03-25T05:12:14;100491.69;;;17.43;59.75
9415;BME280;4746;35.664;139.738;2023-03-25T05:14:43;100496.81;;;17.44;59.97
9415;BME280;4746;35.664;139.738;2023-03-25T05:17:10;100504.53;;;17.47;59.61
9415;BME280;4746;35.664;139.738;2023-03-25T05:19:38;100490.66;;;17.51;59.64
9415;BME280;4746;35.664;139.738;2023-03-25T05:22:09;100491.41;;;17.58;59.21
9415;BME280;4746;35.664;139.738;2023-03-25T05:24:40;100482.66;;;17.65;59.26
9415;BME280;4746;35.664;139.738;2023-03-25T05:27:10;100483.34;;;17.74;58.78
9415;BME280;4746;35.664;139.738;2023-03-25T05:29:38;100477.13;;;17.84;58.73
9415;BME280;4746;35.664;139.738;2023-03-25T05:32:06;100489.97;;;17.90;58.62
9415;BME280;4746;35.664;139.738;2023-03-25T05:34:33;100491.69;;;17.91;58.36
9415;BME280;4746;35.664;139.738;2023-03-25T05:37:01;100478.72;;;17.91;58.65
9415;BME280;4746;35.664;139.738;2023-03-25T05:39:28;100468.31;;;17.93;58.26
9415;BME280;4746;35.664;139.738;2023-03-25T05:41:56;100466.66;;;17.89;57.96
9415;BME280;4746;35.664;139.738;2023-03-25T05:44:28;100478.75;;;17.90;58.19
9415;BME280;4746;35.664;139.738;2023-03-25T05:46:56;100482.19;;;17.90;58.51
9415;BME280;4746;35.664;139.738;2023-03-25T05:49:27;100479.56;;;17.93;57.89
9415;BME280;4746;35.664;139.738;2023-03-25T05:51:55;100470.88;;;17.94;58.71
9415;BME280;4746;35.664;139.738;2023-03-25T05:54:23;100467.41;;;17.97;58.15
9415;BME280;4746;35.664;139.738;2023-03-25T05:56:50;100460.47;;;17.97;58.19
9415;BME280;4746;35.664;139.738;2023-03-25T05:59:18;100465.75;;;17.91;57.69
9415;BME280;4746;35.664;139.738;2023-03-25T06:01:46;100470.97;;;17.88;57.77
9415;BME280;4746;35.664;139.738;2023-03-25T06:04:15;100476.28;;;17.82;57.74
9415;BME280;4746;35.664;139.738;2023-03-25T06:06:43;100472.09;;;17.74;57.37
9415;BME280;4746;35.664;139.738;2023-03-25T06:09:10;100476.63;;;17.63;57.45
9415;BME280;4746;35.664;139.738;2023-03-25T06:11:38;100474.19;;;17.55;57.40
9415;BME280;4746;35.664;139.738;2023-03-25T06:14:06;100482.94;;;17.48;57.31
9415;BME280;4746;35.664;139.738;2023-03-25T06:16:35;100487.28;;;17.48;57.77
9415;BME280;4746;35.664;139.738;2023-03-25T06:19:02;100487.19;;;17.51;57.65
9415;BME280;4746;35.664;139.738;2023-03-25T06:21:32;100481.97;;;17.54;57.84
9415;BME280;4746;35.664;139.738;2023-03-25T06:24:01;100490.59;;;17.54;58.07
9415;BME280;4746;35.664;139.738;2023-03-25T06:26:29;100487.09;;;17.58;57.82
9415;BME280;4746;35.664;139.738;2023-03-25T06:28:58;100488.84;;;17.56;58.23
9415;BME280;4746;35.664;139.738;2023-03-25T06:31:27;100483.69;;;17.53;57.96
9415;BME280;4746;35.664;139.738;2023-03-25T06:33:55;100482.06;;;17.49;58.34
9415;BME280;4746;35.664;139.738;2023-03-25T06:36:23;100493.34;;;17.45;58.33
9415;BME280;4746;35.664;139.738;2023-03-25T06:38:51;100499.41;;;17.44;58.46
9415;BME280;4746;35.664;139.738;2023-03-25T06:41:20;100502.03;;;17.41;58.36
9415;BME280;4746;35.664;139.738;2023-03-25T06:43:51;100502.13;;;17.37;58.53
9415;BME280;4746;35.664;139.738;2023-03-25T06:46:19;100505.56;;;17.38;58.47
9415;BME280;4746;35.664;139.738;2023-03-25T06:48:46;100507.31;;;17.36;58.36
9415;BME280;4746;35.664;139.738;2023-03-25T06:51:14;100493.50;;;17.35;58.60
9415;BME280;4746;35.664;139.738;2023-03-25T06:53:42;100494.34;;;17.36;58.60
9415;BME280;4746;35.664;139.738;2023-03-25T06:56:09;100492.69;;;17.35;58.68
9415;BME280;4746;35.664;139.738;2023-03-25T06:58:37;100495.19;;;17.38;59.05
9415;BME280;4746;35.664;139.738;2023-03-25T07:01:05;100496.03;;;17.40;58.99
9415;BME280;4746;35.664;139.738;2023-03-25T07:03:36;100494.28;;;17.40;58.73
9415;BME280;4746;35.664;139.738;2023-03-25T07:06:05;100492.63;;;17.38;58.63
9415;BME280;4746;35.664;139.738;2023-03-25T07:08:33;100502.97;;;17.38;58.92
9415;BME280;4746;35.664;139.738;2023-03-25T07:11:07;100508.97;;;17.41;58.90
9415;BME280;4746;35.664;139.738;2023-03-25T07:13:35;100506.41;;;17.40;58.80
9415;BME280;4746;35.664;139.738;2023-03-25T07:16:03;100524.56;;;17.37;58.79
9415;BME280;4746;35.664;139.738;2023-03-25T07:18:33;100533.22;;;17.37;58.95
9415;BME280;4746;35.664;139.738;2023-03-25T07:21:01;100537.59;;;17.34;58.93
9415;BME280;4746;35.664;139.738;2023-03-25T07:23:30;100531.63;;;17.29;58.97
9415;BME280;4746;35.664;139.738;2023-03-25T07:25:58;100534.22;;;17.26;58.77
9415;BME280;4746;35.664;139.738;2023-03-25T07:28:25;100535.97;;;17.24;58.51
9415;BME280;4746;35.664;139.738;2023-03-25T07:30:53;100544.63;;;17.23;59.00
9415;BME280;4746;35.664;139.738;2023-03-25T07:33:20;100533.41;;;17.24;59.18
9415;BME280;4746;35.664;139.738;2023-03-25T07:35:48;100528.19;;;17.25;58.96
9415;BME280;4746;35.664;139.738;2023-03-25T07:38:15;100519.53;;;17.25;58.76
9415;BME280;4746;35.664;139.738;2023-03-25T07:40:43;100536.84;;;17.23;58.92
9415;BME280;4746;35.664;139.738;2023-03-25T07:43:11;100533.41;;;17.22;59.23
9415;BME280;4746;35.664;139.738;2023-03-25T07:45:38;100531.69;;;17.21;59.15
9415;BME280;4746;35.664;139.738;2023-03-25T07:48:06;100521.34;;;17.20;59.07
9415;BME280;4746;35.664;139.738;2023-03-25T07:50:40;100531.69;;;17.21;59.25
9415;BME280;4746;35.664;139.738;2023-03-25T07:53:08;100533.44;;;17.21;58.92
9415;BME280;4746;35.664;139.738;2023-03-25T07:55:36;100541.19;;;17.21;59.00
9415;BME280;4746;35.664;139.738;2023-03-25T07:58:04;100534.34;;;17.17;59.15
9415;BME280;4746;35.664;139.738;2023-03-25T08:00:31;100542.13;;;17.17;59.17
9415;BME280;4746;35.664;139.738;2023-03-25T08:02:59;100537.81;;;17.16;59.09
9415;BME280;4746;35.664;139.738;2023-03-25T08:05:26;100536.06;;;17.18;59.56
9415;BME280;4746;35.664;139.738;2023-03-25T08:07:54;100538.63;;;17.19;59.00
9415;BME280;4746;35.664;139.738;2023-03-25T08:10:26;100546.44;;;17.18;59.12
9415;BME280;4746;35.664;139.738;2023-03-25T08:12:54;100544.81;;;17.11;59.51
9415;BME280;4746;35.664;139.738;2023-03-25T08:15:21;100541.38;;;17.09;59.43
9415;BME280;4746;35.664;139.738;2023-03-25T08:17:52;100550.06;;;17.05;59.86
9415;BME280;4746;35.664;139.738;2023-03-25T08:20:20;100563.00;;;17.05;59.94
9415;BME280;4746;35.664;139.738;2023-03-25T08:22:48;100551.78;;;17.06;59.94
9415;BME280;4746;35.664;139.738;2023-03-25T08:25:17;100562.06;;;17.09;60.03
9415;BME280;4746;35.664;139.738;2023-03-25T08:27:45;100562.13;;;17.06;60.47
9415;BME280;4746;35.664;139.738;2023-03-25T08:30:13;100576.75;;;17.10;59.95
9415;BME280;4746;35.664;139.738;2023-03-25T08:32:43;100581.88;;;17.11;60.12
9415;BME280;4746;35.664;139.738;2023-03-25T08:35:21;100581.03;;;17.12;60.34
9415;BME280;4746;35.664;139.738;2023-03-25T08:37:52;100575.88;;;17.11;60.04
9415;BME280;4746;35.664;139.738;2023-03-25T08:40:19;100583.63;;;17.09;60.09
9415;BME280;4746;35.664;139.738;2023-03-25T08:42:47;100570.69;;;17.09;60.17
9415;BME280;4746;35.664;139.738;2023-03-25T08:45:15;100570.69;;;17.11;59.89
9415;BME280;4746;35.664;139.738;2023-03-25T08:47:43;100571.56;;;17.10;59.80
9415;BME280;4746;35.664;139.738;2023-03-25T08:50:12;100562.97;;;17.06;59.46
9415;BME280;4746;35.664;139.738;2023-03-25T08:52:41;100569.06;;;17.04;59.38
9415;BME280;4746;35.664;139.738;2023-03-25T08:55:10;100560.44;;;17.02;59.42
9415;BME280;4746;35.664;139.738;2023-03-25T08:57:38;100566.50;;;17.02;59.21
9415;BME280;4746;35.664;139.738;2023-03-25T09:00:06;100563.88;;;17.04;58.70
9415;BME280;4746;35.664;139.738;2023-03-25T09:02:42;100575.09;;;17.06;58.94
9415;BME280;4746;35.664;139.738;2023-03-25T09:05:11;100575.06;;;17.07;58.76
9415;BME280;4746;35.664;139.738;2023-03-25T09:07:41;100575.06;;;17.04;58.82
9415;BME280;4746;35.664;139.738;2023-03-25T09:10:09;100582.88;;;17.03;58.80
9415;BME280;4746;35.664;139.738;2023-03-25T09:12:39;100592.34;;;17.04;58.68
9415;BME280;4746;35.664;139.738;2023-03-25T09:15:08;100587.16;;;17.05;58.65
9415;BME280;4746;35.664;139.738;2023-03-25T09:17:36;100582.88;;;17.03;58.71
9415;BME280;4746;35.664;139.738;2023-03-25T09:20:04;100583.72;;;17.03;58.52
9415;BME280;4746;35.664;139.738;2023-03-25T09:22:37;100577.66;;;17.07;58.63
9415;BME280;4746;35.664;139.738;2023-03-25T09:25:06;100573.38;;;17.05;58.55
9415;BME280;4746;35.664;139.738;2023-03-25T09:27:34;100573.34;;;17.03;58.93
9415;BME280;4746;35.664;139.738;2023-03-25T09:30:04;100571.59;;;17.07;58.74
9415;BME280;4746;35.664;139.738;2023-03-25T09:32:32;100572.50;;;17.06;58.93
9415;BME280;4746;35.664;139.738;2023-03-25T09:35:00;100580.19;;;17.09;58.83
9415;BME280;4746;35.664;139.738;2023-03-25T09:37:28;100583.63;;;17.09;58.84
9415;BME280;4746;35.664;139.738;2023-03-25T09:39:55;100594.00;;;17.11;58.93
9415;BME280;4746;35.664;139.738;2023-03-25T09:50:43;100584.44;;;17.13;59.18
9415;BME280;4746;35.664;139.738;2023-03-25T09:56:23;100566.34;;;17.14;59.38
9415;BME280;4746;35.664;139.738;2023-03-25T09:59:10;100576.69;;;17.13;59.40
9415;BME280;4746;35.664;139.738;2023-03-25T10:02:31;100593.03;;;17.18;59.82
9415;BME280;4746;35.664;139.738;2023-03-25T10:11:39;100606.91;;;17.12;59.52
9415;BME280;4746;35.664;139.738;2023-03-25T10:17:38;100636.25;;;17.13;59.81
9415;BME280;4746;35.664;139.738;2023-03-25T10:20:24;100635.41;;;17.09;60.09
9415;BME280;4746;35.664;139.738;2023-03-25T10:29:08;100651.84;;;17.10;60.21
9415;BME280;4746;35.664;139.738;2023-03-25T10:31:48;100646.69;;;17.07;60.60
9415;BME280;4746;35.664;139.738;2023-03-25T10:34:21;100645.84;;;17.05;60.67
9415;BME280;4746;35.664;139.738;2023-03-25T10:36:54;100651.03;;;17.05;61.02
9415;BME280;4746;35.664;139.738;2023-03-25T10:39:30;100654.53;;;17.02;60.96
9415;BME280;4746;35.664;139.738;2023-03-25T10:42:11;100645.06;;;17.00;61.57
9415;BME280;4746;35.664;139.738;2023-03-25T10:44:41;100664.06;;;16.96;61.42
9415;BME280;4746;35.664;139.738;2023-03-25T10:47:18;100669.22;;;16.99;61.22
9415;BME280;4746;35.664;139.738;2023-03-25T10:49:49;100671.81;;;16.99;61.78
9415;BME280;4746;35.664;139.738;2023-03-25T10:52:18;100677.88;;;16.98;61.80
9415;BME280;4746;35.664;139.738;2023-03-25T10:54:53;100684.75;;;16.99;61.65
9415;BME280;4746;35.664;139.738;2023-03-25T10:57:33;100694.25;;;17.00;61.94
9415;BME280;4746;35.664;139.738;2023-03-25T11:00:16;100691.69;;;16.97;61.99
9415;BME280;4746;35.664;139.738;2023-03-25T11:02:46;100704.66;;;16.92;62.29
9415;BME280;4746;35.664;139.738;2023-03-25T11:05:21;100712.44;;;16.94;62.54
9415;BME280;4746;35.664;139.738;2023-03-25T11:07:59;100712.44;;;16.92;62.44
9415;BME280;4746;35.664;139.738;2023-03-25T11:10:34;100709.06;;;16.86;62.56
9415;BME280;4746;35.664;139.738;2023-03-25T11:13:02;100718.59;;;16.82;63.35
9415;BME280;4746;35.664;139.738;2023-03-25T11:15:33;100708.22;;;16.82;63.13
9415;BME280;4746;35.664;139.738;2023-03-25T11:21:12;100721.19;;;16.81;63.08
9415;BME280;4746;35.664;139.738;2023-03-25T11:23:47;100714.34;;;16.74;63.13
9415;BME280;4746;35.664;139.738;2023-03-25T11:26:35;100726.44;;;16.72;63.16
9415;BME280;4746;35.664;139.738;2023-03-25T11:29:15;100723.03;;;16.67;63.45
9415;BME280;4746;35.664;139.738;2023-03-25T11:32:14;100729.94;;;16.68;63.49
9415;BME280;4746;35.664;139.738;2023-03-25T11:34:47;100734.28;;;16.65;63.68
9415;BME280;4746;35.664;139.738;2023-03-25T11:37:20;100729.09;;;16.66;63.98
9415;BME280;4746;35.664;139.738;2023-03-25T11:39:54;100738.56;;;16.67;64.21
9415;BME280;4746;35.664;139.738;2023-03-25T11:42:38;100743.75;;;16.70;64.33
9415;BME280;4746;35.664;139.738;2023-03-25T11:45:35;100745.47;;;16.71;64.20
9415;BME280;4746;35.664;139.738;2023-03-25T11:48:22;100741.97;;;16.73;64.37
9415;BME280;4746;35.664;139.738;2023-03-25T11:51:00;100733.34;;;16.73;64.33
9415;BME280;4746;35.664;139.738;2023-03-25T11:53:31;100725.59;;;16.71;64.46
9415;BME280;4746;35.664;139.738;2023-03-25T11:56:19;100723.00;;;16.73;64.43
9415;BME280;4746;35.664;139.738;2023-03-25T11:58:50;100721.31;;;16.69;64.53
9415;BME280;4746;35.664;139.738;2023-03-25T12:01:25;100713.53;;;16.70;64.79
9415;BME280;4746;35.664;139.738;2023-03-25T12:04:26;100715.22;;;16.73;64.41
9415;BME280;4746;35.664;139.738;2023-03-25T12:07:12;100711.78;;;16.72;64.24
9415;BME280;4746;35.664;139.738;2023-03-25T12:10:03;100708.34;;;16.73;64.48
9415;BME280;4746;35.664;139.738;2023-03-25T12:15:52;100712.63;;;16.76;64.99
9415;BME280;4746;35.664;139.738;2023-03-25T12:21:45;100711.75;;;16.75;64.74
9415;BME280;4746;35.664;139.738;2023-03-25T12:27:35;100719.44;;;16.84;64.49
9415;BME280;4746;35.664;139.738;2023-03-25T12:47:50;100714.13;;;16.95;64.16
9415;BME280;4746;35.664;139.738;2023-03-25T13:00:15;100715.97;;;16.85;63.82
9415;BME280;4746;35.664;139.738;2023-03-25T13:03:22;100717.69;;;16.85;63.53
9415;BME280;4746;35.664;139.738;2023-03-25T13:06:14;100716.88;;;16.81;63.61
9415;BME280;4746;35.664;139.738;2023-03-25T13:17:54;100703.09;;;16.81;63.67
9415;BME280;4746;35.664;139.738;2023-03-25T13:20:33;100693.63;;;16.77;63.70
9415;BME280;4746;35.664;139.738;2023-03-25T13:23:09;100687.63;;;16.73;63.92
9415;BME280;4746;35.664;139.738;2023-03-25T13:25:59;100693.63;;;16.75;63.65
9415;BME280;4746;35.664;139.738;2023-03-25T13:29:33;100679.88;;;16.72;63.83
9415;BME280;4746;35.664;139.738;2023-03-25T13:32:07;100679.94;;;16.66;63.93
9415;BME280;4746;35.664;139.738;2023-03-25T13:34:54;100679.09;;;16.66;63.99
9415;BME280;4746;35.664;139.738;2023-03-25T13:37:37;100673.94;;;16.63;63.95
9415;BME280;4746;35.664;139.738;2023-03-25T13:40:49;100681.72;;;16.61;64.00
9415;BME280;4746;35.664;139.738;2023-03-25T13:43:59;100684.31;;;16.57;63.73
9415;BME280;4746;35.664;139.738;2023-03-25T13:51:50;100678.34;;;16.53;64.30
9415;BME280;4746;35.664;139.738;2023-03-25T14:12:38;100622.25;;;17.26;64.93
9415;BME280;4746;35.664;139.738;2023-03-25T14:15:19;100616.19;;;17.30;65.18
9415;BME280;4746;35.664;139.738;2023-03-25T14:17:49;100623.00;;;17.37;64.90
9415;BME280;4746;35.664;139.738;2023-03-25T14:20:37;100612.50;;;17.47;64.53
9415;BME280;4746;35.664;139.738;2023-03-25T14:23:16;100619.28;;;17.55;64.21
9415;BME280;4746;35.664;139.738;2023-03-25T14:26:00;100621.00;;;17.56;63.95
9415;BME280;4746;35.664;139.738;2023-03-25T14:28:43;100620.13;;;17.57;63.58
9415;BME280;4746;35.664;139.738;2023-03-25T14:44:43;100621.13;;;17.49;63.51
9415;BME280;4746;35.664;139.738;2023-03-25T14:47:27;100622.03;;;17.46;63.14
9415;BME280;4746;35.664;139.738;2023-03-25T14:53:01;100631.69;;;17.34;62.95
9415;BME280;4746;35.664;139.738;2023-03-25T14:55:40;100629.97;;;17.33;63.29
9415;BME280;4746;35.664;139.738;2023-03-25T14:58:26;100648.06;;;17.36;63.02
9415;BME280;4746;35.664;139.738;2023-03-25T15:01:09;100643.72;;;17.37;63.22
9415;BME280;4746;35.664;139.738;2023-03-25T15:03:42;100641.28;;;17.28;63.36
9415;BME280;4746;35.664;139.738;2023-03-25T15:06:21;100646.50;;;17.22;62.77
9415;BME280;4746;35.664;139.738;2023-03-25T15:08:57;100641.41;;;17.16;62.96
9415;BME280;4746;35.664;139.738;2023-03-25T15:11:34;100649.16;;;17.16;63.17
9415;BME280;4746;35.664;139.738;2023-03-25T15:14:21;100648.28;;;17.17;63.31
9415;BME280;4746;35.664;139.738;2023-03-25T15:19:19;100650.16;;;17.04;63.30
9415;BME280;4746;35.664;139.738;2023-03-25T15:24:39;100661.47;;;16.99;63.49
9415;BME280;4746;35.664;139.738;2023-03-25T15:30:10;100652.00;;;16.96;63.78
9415;BME280;4746;35.664;139.738;2023-03-25T15:33:21;100657.16;;;16.98;63.61
9415;BME280;4746;35.664;139.738;2023-03-25T15:36:37;100652.00;;;16.95;64.11
9415;BME280;4746;35.664;139.738;2023-03-25T15:40:02;100649.38;;;16.98;64.19
9415;BME280;4746;35.664;139.738;2023-03-25T15:49:39;100635.59;;;16.97;64.17
9415;BME280;4746;35.664;139.738;2023-03-25T15:55:52;100628.81;;;16.87;64.58
9415;BME280;4746;35.664;139.738;2023-03-25T16:01:32;100634.06;;;16.80;64.46
9415;BME280;4746;35.664;139.738;2023-03-25T16:06:44;100626.38;;;16.74;64.92
9415;BME280;4746;35.664;139.738;2023-03-25T16:09:20;100634.19;;;16.71;65.00
9415;BME280;4746;35.664;139.738;2023-03-25T16:11:48;100640.25;;;16.67;65.47
9415;BME280;4746;35.664;139.738;2023-03-25T16:14:20;100635.91;;;16.69;65.12
9415;BME280;4746;35.664;139.738;2023-03-25T16:16:55;100622.94;;;16.72;65.05
9415;BME280;4746;35.664;139.738;2023-03-25T16:19:38;100622.06;;;16.76;65.09
9415;BME280;4746;35.664;139.738;2023-03-25T16:25:04;100616.00;;;16.77;65.58
9415;BME280;4746;35.664;139.738;2023-03-25T16:27:42;100603.94;;;16.73;65.36